KSBO

East Georgia Regional Airport

Swainsboro, Georgia, USA
METAR KSBO 252155Z AUTO 18005KT 10SM VCTS SCT033 BKN042 28/23 A2996 RMK AO2 LTG DSNT ALQS
Observed Flight Rules
May-25 @ 21:55 UTC (32 minutes ago) Visual Flight Rules
Wind Visibility Clouds Conditions
180° at 5 knots 10 miles
  • Scattered at 3,300' AGL
  • Broken at 4,200' AGL
  • Area Thunderstorm
Temperatures Readings
Current 28°C / 82°F
Dewpoint 23°C / 73°F
Humidity 74%
Altimeter 29.96" Hg
Pressure 1015 hPa
Elevation 100
METAR KSBO 252155Z AUTO 18005KT 10SM VCTS SCT033 BKN042 28/23 A2996 RMK AO2 LTG DSNT ALQS
Observed Flight Rules
May-25 @ 21:55 UTC
(32 minutes ago)
VFR
Wind Visibility
180° at 5 knots 10 miles
Clouds
  • Scattered at 3,300' AGL
  • Broken at 4,200' AGL
Conditions
  • Area Thunderstorm
Temperature Dewpoint
28°C / 82°F 23°C / 73°F
Humidity Altimeter Pressure
74% 29.96" Hg 1015 hPa